sensor_id;sensor_type;location;lat;lon;timestamp;temperature;humidity
22526;DHT22;11429;50.842;4.386;2022-08-07T00:00:50;18.00;99.90
22526;DHT22;11429;50.842;4.386;2022-08-07T00:03:15;18.20;99.90
22526;DHT22;11429;50.842;4.386;2022-08-07T00:05:41;18.10;99.90
22526;DHT22;11429;50.842;4.386;2022-08-07T00:08:07;18.00;99.90
22526;DHT22;11429;50.842;4.386;2022-08-07T00:10:33;18.20;99.90
22526;DHT22;11429;50.842;4.386;2022-08-07T00:13:00;18.10;99.90
22526;DHT22;11429;50.842;4.386;2022-08-07T00:15:30;18.00;99.90
22526;DHT22;11429;50.842;4.386;2022-08-07T00:17:56;18.10;99.90
22526;DHT22;11429;50.842;4.386;2022-08-07T00:20:22;18.10;99.90
22526;DHT22;11429;50.842;4.386;2022-08-07T00:22:48;18.10;99.90
22526;DHT22;11429;50.842;4.386;2022-08-07T00:25:13;18.10;99.90
22526;DHT22;11429;50.842;4.386;2022-08-07T00:27:39;18.00;99.90
22526;DHT22;11429;50.842;4.386;2022-08-07T00:30:05;17.80;99.90
22526;DHT22;11429;50.842;4.386;2022-08-07T00:32:31;17.80;99.90
22526;DHT22;11429;50.842;4.386;2022-08-07T00:34:57;18.00;99.90
22526;DHT22;11429;50.842;4.386;2022-08-07T00:37:22;17.90;99.90
22526;DHT22;11429;50.842;4.386;2022-08-07T00:39:49;17.90;99.90
22526;DHT22;11429;50.842;4.386;2022-08-07T00:42:15;18.00;99.90
22526;DHT22;11429;50.842;4.386;2022-08-07T00:44:40;17.90;99.90
22526;DHT22;11429;50.842;4.386;2022-08-07T00:47:06;17.90;99.90
22526;DHT22;11429;50.842;4.386;2022-08-07T00:49:33;17.90;99.90
22526;DHT22;11429;50.842;4.386;2022-08-07T00:51:58;18.00;99.90
22526;DHT22;11429;50.842;4.386;2022-08-07T00:54:24;18.10;99.90
22526;DHT22;11429;50.842;4.386;2022-08-07T00:56:50;17.90;99.90
22526;DHT22;11429;50.842;4.386;2022-08-07T00:59:17;17.90;99.90
22526;DHT22;11429;50.842;4.386;2022-08-07T01:01:43;17.80;99.90
22526;DHT22;11429;50.842;4.386;2022-08-07T01:04:09;17.90;99.90
22526;DHT22;11429;50.842;4.386;2022-08-07T01:06:35;17.90;99.90
22526;DHT22;11429;50.842;4.386;2022-08-07T01:09:02;17.80;99.90
22526;DHT22;11429;50.842;4.386;2022-08-07T01:11:29;17.80;99.90
22526;DHT22;11429;50.842;4.386;2022-08-07T01:13:55;17.70;99.90
22526;DHT22;11429;50.842;4.386;2022-08-07T01:16:21;17.50;99.90
22526;DHT22;11429;50.842;4.386;2022-08-07T01:18:46;17.40;99.90
22526;DHT22;11429;50.842;4.386;2022-08-07T01:21:17;17.40;99.90
22526;DHT22;11429;50.842;4.386;2022-08-07T01:23:46;17.40;99.90
22526;DHT22;11429;50.842;4.386;2022-08-07T01:26:14;17.50;99.90
22526;DHT22;11429;50.842;4.386;2022-08-07T01:28:45;17.50;99.90
22526;DHT22;11429;50.842;4.386;2022-08-07T01:31:11;17.60;99.90
22526;DHT22;11429;50.842;4.386;2022-08-07T01:33:38;17.60;99.90
22526;DHT22;11429;50.842;4.386;2022-08-07T01:36:04;17.50;99.90
22526;DHT22;11429;50.842;4.386;2022-08-07T01:38:33;17.70;99.90
22526;DHT22;11429;50.842;4.386;2022-08-07T01:41:00;17.50;99.90
22526;DHT22;11429;50.842;4.386;2022-08-07T01:43:27;17.30;99.90
22526;DHT22;11429;50.842;4.386;2022-08-07T01:45:54;17.30;99.90
22526;DHT22;11429;50.842;4.386;2022-08-07T01:48:20;17.40;99.90
22526;DHT22;11429;50.842;4.386;2022-08-07T01:50:51;17.50;99.90
22526;DHT22;11429;50.842;4.386;2022-08-07T01:53:19;17.40;99.90
22526;DHT22;11429;50.842;4.386;2022-08-07T01:55:49;17.70;99.90
22526;DHT22;11429;50.842;4.386;2022-08-07T01:58:19;17.70;99.90
22526;DHT22;11429;50.842;4.386;2022-08-07T02:00:50;17.70;99.90
22526;DHT22;11429;50.842;4.386;2022-08-07T02:03:19;17.80;99.90
22526;DHT22;11429;50.842;4.386;2022-08-07T02:05:51;18.00;99.90
22526;DHT22;11429;50.842;4.386;2022-08-07T02:08:21;17.60;99.90
22526;DHT22;11429;50.842;4.386;2022-08-07T02:10:48;17.50;99.90
22526;DHT22;11429;50.842;4.386;2022-08-07T02:13:19;17.60;99.90
22526;DHT22;11429;50.842;4.386;2022-08-07T02:15:46;17.70;99.90
22526;DHT22;11429;50.842;4.386;2022-08-07T02:18:14;17.30;99.90
22526;DHT22;11429;50.842;4.386;2022-08-07T02:20:41;17.20;99.90
22526;DHT22;11429;50.842;4.386;2022-08-07T02:23:08;17.20;99.90
22526;DHT22;11429;50.842;4.386;2022-08-07T02:25:36;17.20;99.90
22526;DHT22;11429;50.842;4.386;2022-08-07T02:28:05;17.30;99.90
22526;DHT22;11429;50.842;4.386;2022-08-07T02:30:33;17.30;99.90
22526;DHT22;11429;50.842;4.386;2022-08-07T02:33:00;17.40;99.90
22526;DHT22;11429;50.842;4.386;2022-08-07T02:35:27;17.40;99.90
22526;DHT22;11429;50.842;4.386;2022-08-07T02:37:55;17.50;99.90
22526;DHT22;11429;50.842;4.386;2022-08-07T02:40:22;17.40;99.90
22526;DHT22;11429;50.842;4.386;2022-08-07T02:42:48;17.30;99.90
22526;DHT22;11429;50.842;4.386;2022-08-07T02:45:16;17.20;99.90
22526;DHT22;11429;50.842;4.386;2022-08-07T02:47:43;17.10;99.90
22526;DHT22;11429;50.842;4.386;2022-08-07T02:50:09;16.90;99.90
22526;DHT22;11429;50.842;4.386;2022-08-07T02:52:45;16.90;99.90
22526;DHT22;11429;50.842;4.386;2022-08-07T02:55:19;16.70;99.90
22526;DHT22;11429;50.842;4.386;2022-08-07T02:57:46;16.80;99.90
22526;DHT22;11429;50.842;4.386;2022-08-07T03:00:14;16.90;99.90
22526;DHT22;11429;50.842;4.386;2022-08-07T03:02:43;17.00;99.90
22526;DHT22;11429;50.842;4.386;2022-08-07T03:05:10;16.90;99.90
22526;DHT22;11429;50.842;4.386;2022-08-07T03:07:37;16.70;99.90
22526;DHT22;11429;50.842;4.386;2022-08-07T03:10:03;16.80;99.90
22526;DHT22;11429;50.842;4.386;2022-08-07T03:12:31;17.00;99.90
22526;DHT22;11429;50.842;4.386;2022-08-07T03:14:57;17.20;99.90
22526;DHT22;11429;50.842;4.386;2022-08-07T03:17:23;17.30;99.90
22526;DHT22;11429;50.842;4.386;2022-08-07T03:19:49;17.30;99.90
22526;DHT22;11429;50.842;4.386;2022-08-07T03:22:16;17.40;99.90
22526;DHT22;11429;50.842;4.386;2022-08-07T03:24:43;17.40;99.90
22526;DHT22;11429;50.842;4.386;2022-08-07T03:27:10;17.20;99.90
22526;DHT22;11429;50.842;4.386;2022-08-07T03:29:47;17.10;99.90
22526;DHT22;11429;50.842;4.386;2022-08-07T03:32:15;17.10;99.90
22526;DHT22;11429;50.842;4.386;2022-08-07T03:34:42;17.20;99.90
22526;DHT22;11429;50.842;4.386;2022-08-07T03:37:09;17.20;99.90
22526;DHT22;11429;50.842;4.386;2022-08-07T03:39:37;17.30;99.90
22526;DHT22;11429;50.842;4.386;2022-08-07T03:42:04;16.80;99.90
22526;DHT22;11429;50.842;4.386;2022-08-07T03:44:32;17.00;99.90
22526;DHT22;11429;50.842;4.386;2022-08-07T03:46:59;17.00;99.90
22526;DHT22;11429;50.842;4.386;2022-08-07T03:49:26;16.70;99.90
22526;DHT22;11429;50.842;4.386;2022-08-07T03:51:52;16.90;99.90
22526;DHT22;11429;50.842;4.386;2022-08-07T03:54:20;17.10;99.90
22526;DHT22;11429;50.842;4.386;2022-08-07T03:56:46;17.10;99.90
22526;DHT22;11429;50.842;4.386;2022-08-07T03:59:12;16.90;99.90
22526;DHT22;11429;50.842;4.386;2022-08-07T04:01:44;16.90;99.90
22526;DHT22;11429;50.842;4.386;2022-08-07T04:04:10;17.20;99.90
22526;DHT22;11429;50.842;4.386;2022-08-07T04:06:36;16.80;99.90
22526;DHT22;11429;50.842;4.386;2022-08-07T04:09:03;16.70;99.90
22526;DHT22;11429;50.842;4.386;2022-08-07T04:11:30;16.60;99.90
22526;DHT22;11429;50.842;4.386;2022-08-07T04:13:57;16.70;99.90
22526;DHT22;11429;50.842;4.386;2022-08-07T04:16:24;16.50;99.90
22526;DHT22;11429;50.842;4.386;2022-08-07T04:18:50;16.60;99.90
22526;DHT22;11429;50.842;4.386;2022-08-07T04:21:16;16.40;99.90
22526;DHT22;11429;50.842;4.386;2022-08-07T04:23:42;16.40;99.90
22526;DHT22;11429;50.842;4.386;2022-08-07T04:26:08;16.50;99.90
22526;DHT22;11429;50.842;4.386;2022-08-07T04:28:33;16.50;99.90
22526;DHT22;11429;50.842;4.386;2022-08-07T04:30:59;16.50;99.90
22526;DHT22;11429;50.842;4.386;2022-08-07T04:33:25;16.40;99.90
22526;DHT22;11429;50.842;4.386;2022-08-07T04:35:52;16.30;99.90
22526;DHT22;11429;50.842;4.386;2022-08-07T04:38:18;16.30;99.90
22526;DHT22;11429;50.842;4.386;2022-08-07T04:40:45;16.50;99.90
22526;DHT22;11429;50.842;4.386;2022-08-07T04:43:14;16.30;99.90
22526;DHT22;11429;50.842;4.386;2022-08-07T04:45:54;16.40;99.90
22526;DHT22;11429;50.842;4.386;2022-08-07T04:51:04;16.40;99.90
22526;DHT22;11429;50.842;4.386;2022-08-07T04:56:03;16.50;99.90
22526;DHT22;11429;50.842;4.386;2022-08-07T04:58:36;16.40;99.90
22526;DHT22;11429;50.842;4.386;2022-08-07T05:01:13;16.40;99.90
22526;DHT22;11429;50.842;4.386;2022-08-07T05:03:50;16.80;99.90
22526;DHT22;11429;50.842;4.386;2022-08-07T05:06:24;16.90;99.90
22526;DHT22;11429;50.842;4.386;2022-08-07T05:10:01;17.00;99.90
22526;DHT22;11429;50.842;4.386;2022-08-07T05:12:04;16.80;99.90
22526;DHT22;11429;50.842;4.386;2022-08-07T05:14:38;16.70;99.90
22526;DHT22;11429;50.842;4.386;2022-08-07T05:17:07;16.70;99.90
22526;DHT22;11429;50.842;4.386;2022-08-07T05:19:37;16.50;99.90
22526;DHT22;11429;50.842;4.386;2022-08-07T05:22:06;16.50;99.90
22526;DHT22;11429;50.842;4.386;2022-08-07T05:24:33;17.00;99.90
22526;DHT22;11429;50.842;4.386;2022-08-07T05:27:00;17.30;99.90
22526;DHT22;11429;50.842;4.386;2022-08-07T05:29:27;17.20;99.90
22526;DHT22;11429;50.842;4.386;2022-08-07T05:31:54;17.60;99.90
22526;DHT22;11429;50.842;4.386;2022-08-07T05:34:21;18.70;99.90
22526;DHT22;11429;50.842;4.386;2022-08-07T05:36:52;19.60;99.90
22526;DHT22;11429;50.842;4.386;2022-08-07T05:39:19;19.70;99.90
22526;DHT22;11429;50.842;4.386;2022-08-07T05:41:46;20.40;99.90
22526;DHT22;11429;50.842;4.386;2022-08-07T05:44:16;21.60;99.90
22526;DHT22;11429;50.842;4.386;2022-08-07T05:46:42;22.30;99.90
22526;DHT22;11429;50.842;4.386;2022-08-07T05:49:09;23.50;99.90
22526;DHT22;11429;50.842;4.386;2022-08-07T05:51:36;24.30;99.90
22526;DHT22;11429;50.842;4.386;2022-08-07T05:54:02;24.90;99.90
22526;DHT22;11429;50.842;4.386;2022-08-07T05:56:30;25.20;99.90
22526;DHT22;11429;50.842;4.386;2022-08-07T05:58:57;25.30;99.90
22526;DHT22;11429;50.842;4.386;2022-08-07T06:01:25;25.90;99.90
22526;DHT22;11429;50.842;4.386;2022-08-07T06:03:53;26.60;99.90
22526;DHT22;11429;50.842;4.386;2022-08-07T06:06:20;27.10;99.70
22526;DHT22;11429;50.842;4.386;2022-08-07T06:08:46;27.00;99.50
22526;DHT22;11429;50.842;4.386;2022-08-07T06:11:13;27.30;99.10
22526;DHT22;11429;50.842;4.386;2022-08-07T06:13:39;27.80;98.20
22526;DHT22;11429;50.842;4.386;2022-08-07T06:16:06;28.50;97.30
22526;DHT22;11429;50.842;4.386;2022-08-07T06:18:33;29.20;95.70
22526;DHT22;11429;50.842;4.386;2022-08-07T06:21:03;28.80;95.90
22526;DHT22;11429;50.842;4.386;2022-08-07T06:23:30;29.90;94.80
22526;DHT22;11429;50.842;4.386;2022-08-07T06:25:57;30.00;94.00
22526;DHT22;11429;50.842;4.386;2022-08-07T06:28:23;30.10;93.40
22526;DHT22;11429;50.842;4.386;2022-08-07T06:30:49;29.60;93.40
22526;DHT22;11429;50.842;4.386;2022-08-07T06:33:15;29.70;93.30
22526;DHT22;11429;50.842;4.386;2022-08-07T06:35:40;30.00;92.90
22526;DHT22;11429;50.842;4.386;2022-08-07T06:38:06;30.30;92.40
22526;DHT22;11429;50.842;4.386;2022-08-07T06:41:01;30.50;92.00
22526;DHT22;11429;50.842;4.386;2022-08-07T06:43:30;31.00;91.50
22526;DHT22;11429;50.842;4.386;2022-08-07T06:46:01;31.10;91.20
22526;DHT22;11429;50.842;4.386;2022-08-07T06:48:27;30.70;91.20
22526;DHT22;11429;50.842;4.386;2022-08-07T06:50:54;31.20;90.60
22526;DHT22;11429;50.842;4.386;2022-08-07T06:53:21;32.00;88.90
22526;DHT22;11429;50.842;4.386;2022-08-07T06:55:48;31.30;90.00
22526;DHT22;11429;50.842;4.386;2022-08-07T06:58:14;31.90;88.70
22526;DHT22;11429;50.842;4.386;2022-08-07T07:00:42;32.20;89.00
22526;DHT22;11429;50.842;4.386;2022-08-07T07:03:09;31.70;88.00
22526;DHT22;11429;50.842;4.386;2022-08-07T07:05:36;32.00;87.20
22526;DHT22;11429;50.842;4.386;2022-08-07T07:08:02;33.30;85.30
22526;DHT22;11429;50.842;4.386;2022-08-07T07:10:31;33.60;83.80
22526;DHT22;11429;50.842;4.386;2022-08-07T07:13:07;33.50;83.60
22526;DHT22;11429;50.842;4.386;2022-08-07T07:15:41;33.70;82.70
22526;DHT22;11429;50.842;4.386;2022-08-07T07:18:28;32.40;84.30
22526;DHT22;11429;50.842;4.386;2022-08-07T07:21:05;32.60;84.60
22526;DHT22;11429;50.842;4.386;2022-08-07T07:23:33;32.70;83.70
22526;DHT22;11429;50.842;4.386;2022-08-07T07:26:01;32.90;82.80
22526;DHT22;11429;50.842;4.386;2022-08-07T07:28:41;32.60;83.10
22526;DHT22;11429;50.842;4.386;2022-08-07T07:31:17;33.50;81.90
22526;DHT22;11429;50.842;4.386;2022-08-07T07:33:45;34.30;80.70
22526;DHT22;11429;50.842;4.386;2022-08-07T07:36:12;33.50;81.60
22526;DHT22;11429;50.842;4.386;2022-08-07T07:38:40;35.10;78.10
22526;DHT22;11429;50.842;4.386;2022-08-07T07:41:08;35.60;75.80
22526;DHT22;11429;50.842;4.386;2022-08-07T07:43:39;35.40;75.80
22526;DHT22;11429;50.842;4.386;2022-08-07T07:46:06;36.10;75.50
22526;DHT22;11429;50.842;4.386;2022-08-07T07:48:35;36.40;74.70
22526;DHT22;11429;50.842;4.386;2022-08-07T07:51:03;36.90;73.20
22526;DHT22;11429;50.842;4.386;2022-08-07T07:53:30;36.70;72.30
22526;DHT22;11429;50.842;4.386;2022-08-07T07:55:58;35.70;73.20
22526;DHT22;11429;50.842;4.386;2022-08-07T07:58:28;35.50;73.80
22526;DHT22;11429;50.842;4.386;2022-08-07T08:00:56;34.20;75.30
22526;DHT22;11429;50.842;4.386;2022-08-07T08:03:23;33.10;76.90
22526;DHT22;11429;50.842;4.386;2022-08-07T08:05:50;31.40;79.70
22526;DHT22;11429;50.842;4.386;2022-08-07T08:08:16;31.20;80.40
22526;DHT22;11429;50.842;4.386;2022-08-07T08:10:42;30.50;82.20
22526;DHT22;11429;50.842;4.386;2022-08-07T08:13:09;29.80;83.80
22526;DHT22;11429;50.842;4.386;2022-08-07T08:15:37;29.10;85.30
22526;DHT22;11429;50.842;4.386;2022-08-07T08:18:09;27.30;89.30
22526;DHT22;11429;50.842;4.386;2022-08-07T08:20:38;25.60;91.90
22526;DHT22;11429;50.842;4.386;2022-08-07T08:23:06;24.40;93.40
22526;DHT22;11429;50.842;4.386;2022-08-07T08:25:52;23.80;94.50
22526;DHT22;11429;50.842;4.386;2022-08-07T08:28:37;23.90;94.30
22526;DHT22;11429;50.842;4.386;2022-08-07T08:31:07;24.00;94.40
22526;DHT22;11429;50.842;4.386;2022-08-07T08:33:34;24.10;94.30
22526;DHT22;11429;50.842;4.386;2022-08-07T08:36:02;24.10;94.30
22526;DHT22;11429;50.842;4.386;2022-08-07T08:38:35;24.20;94.50
22526;DHT22;11429;50.842;4.386;2022-08-07T08:41:17;24.30;93.80
22526;DHT22;11429;50.842;4.386;2022-08-07T08:44:16;23.80;94.10
22526;DHT22;11429;50.842;4.386;2022-08-07T08:47:06;23.80;94.80
22526;DHT22;11429;50.842;4.386;2022-08-07T08:49:43;23.70;95.50
22526;DHT22;11429;50.842;4.386;2022-08-07T08:52:28;23.80;95.60
22526;DHT22;11429;50.842;4.386;2022-08-07T09:00:51;23.40;95.70
22526;DHT22;11429;50.842;4.386;2022-08-07T09:03:49;23.80;95.20
22526;DHT22;11429;50.842;4.386;2022-08-07T09:23:12;26.90;92.10
22526;DHT22;11429;50.842;4.386;2022-08-07T09:25:50;29.00;90.20
22526;DHT22;11429;50.842;4.386;2022-08-07T09:28:53;31.40;84.50
22526;DHT22;11429;50.842;4.386;2022-08-07T09:31:50;31.90;81.00
22526;DHT22;11429;50.842;4.386;2022-08-07T09:34:59;32.50;79.20
22526;DHT22;11429;50.842;4.386;2022-08-07T09:40:31;33.80;76.20
22526;DHT22;11429;50.842;4.386;2022-08-07T09:45:48;34.50;73.90
22526;DHT22;11429;50.842;4.386;2022-08-07T09:48:45;34.90;72.40
22526;DHT22;11429;50.842;4.386;2022-08-07T09:54:02;32.40;76.80
22526;DHT22;11429;50.842;4.386;2022-08-07T10:09:12;35.50;69.40
22526;DHT22;11429;50.842;4.386;2022-08-07T10:19:42;36.00;67.50
22526;DHT22;11429;50.842;4.386;2022-08-07T10:22:21;35.30;68.40
22526;DHT22;11429;50.842;4.386;2022-08-07T10:28:02;34.00;70.00
22526;DHT22;11429;50.842;4.386;2022-08-07T10:33:45;33.80;70.70
22526;DHT22;11429;50.842;4.386;2022-08-07T10:37:12;34.50;69.30
22526;DHT22;11429;50.842;4.386;2022-08-07T10:44:55;31.70;73.80
22526;DHT22;11429;50.842;4.386;2022-08-07T10:47:39;31.50;74.20
22526;DHT22;11429;50.842;4.386;2022-08-07T10:50:25;31.90;72.70
22526;DHT22;11429;50.842;4.386;2022-08-07T10:53:15;33.20;71.60
22526;DHT22;11429;50.842;4.386;2022-08-07T10:55:46;32.30;72.80
22526;DHT22;11429;50.842;4.386;2022-08-07T10:58:33;31.60;74.40
22526;DHT22;11429;50.842;4.386;2022-08-07T11:01:36;31.80;73.80
22526;DHT22;11429;50.842;4.386;2022-08-07T11:04:17;30.60;76.70
22526;DHT22;11429;50.842;4.386;2022-08-07T11:06:57;31.60;72.80
22526;DHT22;11429;50.842;4.386;2022-08-07T11:09:30;32.70;70.60
22526;DHT22;11429;50.842;4.386;2022-08-07T11:12:05;32.70;70.50
22526;DHT22;11429;50.842;4.386;2022-08-07T11:15:03;32.90;70.70
22526;DHT22;11429;50.842;4.386;2022-08-07T11:17:43;32.80;70.30
22526;DHT22;11429;50.842;4.386;2022-08-07T11:20:22;32.30;71.30
22526;DHT22;11429;50.842;4.386;2022-08-07T11:28:42;29.80;75.70
22526;DHT22;11429;50.842;4.386;2022-08-07T11:34:02;28.80;78.50
22526;DHT22;11429;50.842;4.386;2022-08-07T11:36:42;27.90;80.10
22526;DHT22;11429;50.842;4.386;2022-08-07T11:42:17;29.20;76.80
22526;DHT22;11429;50.842;4.386;2022-08-07T11:58:48;29.70;75.30
22526;DHT22;11429;50.842;4.386;2022-08-07T12:01:52;29.40;76.10
22526;DHT22;11429;50.842;4.386;2022-08-07T12:07:31;28.00;78.30
22526;DHT22;11429;50.842;4.386;2022-08-07T12:10:08;28.80;76.60
22526;DHT22;11429;50.842;4.386;2022-08-07T12:12:54;29.50;76.10
22526;DHT22;11429;50.842;4.386;2022-08-07T12:15:28;29.00;77.10
22526;DHT22;11429;50.842;4.386;2022-08-07T12:18:07;28.20;78.30
22526;DHT22;11429;50.842;4.386;2022-08-07T12:20:51;28.70;76.50
22526;DHT22;11429;50.842;4.386;2022-08-07T12:26:40;27.90;78.60
22526;DHT22;11429;50.842;4.386;2022-08-07T12:32:30;28.20;78.00
22526;DHT22;11429;50.842;4.386;2022-08-07T12:35:02;29.00;76.60
22526;DHT22;11429;50.842;4.386;2022-08-07T12:37:29;29.20;75.40
22526;DHT22;11429;50.842;4.386;2022-08-07T12:39:56;29.30;75.20
22526;DHT22;11429;50.842;4.386;2022-08-07T12:42:27;28.70;76.00
22526;DHT22;11429;50.842;4.386;2022-08-07T12:44:59;27.90;78.00
22526;DHT22;11429;50.842;4.386;2022-08-07T12:47:31;27.50;79.30
22526;DHT22;11429;50.842;4.386;2022-08-07T12:50:09;27.10;79.70
22526;DHT22;11429;50.842;4.386;2022-08-07T12:52:48;27.20;79.10
22526;DHT22;11429;50.842;4.386;2022-08-07T12:55:30;27.20;78.30
22526;DHT22;11429;50.842;4.386;2022-08-07T12:58:00;27.50;76.70
22526;DHT22;11429;50.842;4.386;2022-08-07T13:00:57;27.30;77.40
22526;DHT22;11429;50.842;4.386;2022-08-07T13:12:03;27.60;76.50
22526;DHT22;11429;50.842;4.386;2022-08-07T13:15:14;27.30;77.30
22526;DHT22;11429;50.842;4.386;2022-08-07T13:18:14;26.90;78.10
22526;DHT22;11429;50.842;4.386;2022-08-07T13:20:44;27.40;77.80
22526;DHT22;11429;50.842;4.386;2022-08-07T13:23:23;26.80;78.90
22526;DHT22;11429;50.842;4.386;2022-08-07T13:28:46;26.60;79.30
22526;DHT22;11429;50.842;4.386;2022-08-07T13:31:38;26.30;80.50
22526;DHT22;11429;50.842;4.386;2022-08-07T13:36:57;26.30;81.00
22526;DHT22;11429;50.842;4.386;2022-08-07T13:39:38;26.40;80.10
22526;DHT22;11429;50.842;4.386;2022-08-07T13:42:09;26.50;78.90
22526;DHT22;11429;50.842;4.386;2022-08-07T13:44:39;26.80;78.60
22526;DHT22;11429;50.842;4.386;2022-08-07T13:47:09;27.00;78.30
22526;DHT22;11429;50.842;4.386;2022-08-07T13:49:41;27.30;77.60
22526;DHT22;11429;50.842;4.386;2022-08-07T13:52:08;27.10;77.70
22526;DHT22;11429;50.842;4.386;2022-08-07T13:54:36;26.90;78.00
22526;DHT22;11429;50.842;4.386;2022-08-07T13:57:06;26.90;78.30
22526;DHT22;11429;50.842;4.386;2022-08-07T13:59:41;26.50;79.30
22526;DHT22;11429;50.842;4.386;2022-08-07T14:02:10;26.30;80.30
22526;DHT22;11429;50.842;4.386;2022-08-07T14:04:48;26.30;81.00
22526;DHT22;11429;50.842;4.386;2022-08-07T14:07:16;26.30;81.00
22526;DHT22;11429;50.842;4.386;2022-08-07T14:09:42;26.60;79.80
22526;DHT22;11429;50.842;4.386;2022-08-07T14:12:17;26.50;80.20
22526;DHT22;11429;50.842;4.386;2022-08-07T14:14:50;26.50;80.60
22526;DHT22;11429;50.842;4.386;2022-08-07T14:17:22;26.40;81.20
22526;DHT22;11429;50.842;4.386;2022-08-07T14:19:55;26.30;81.90
22526;DHT22;11429;50.842;4.386;2022-08-07T14:22:27;26.70;81.80
22526;DHT22;11429;50.842;4.386;2022-08-07T14:25:25;26.60;81.00
22526;DHT22;11429;50.842;4.386;2022-08-07T14:27:54;26.50;81.70
22526;DHT22;11429;50.842;4.386;2022-08-07T14:30:21;26.20;82.60
22526;DHT22;11429;50.842;4.386;2022-08-07T14:32:58;26.10;83.00
22526;DHT22;11429;50.842;4.386;2022-08-07T14:35:28;26.10;83.80
22526;DHT22;11429;50.842;4.386;2022-08-07T14:37:56;26.20;83.80
22526;DHT22;11429;50.842;4.386;2022-08-07T14:40:25;26.20;82.20
22526;DHT22;11429;50.842;4.386;2022-08-07T14:43:03;26.50;81.70
22526;DHT22;11429;50.842;4.386;2022-08-07T14:45:41;26.80;80.90
22526;DHT22;11429;50.842;4.386;2022-08-07T14:48:08;26.90;81.10
22526;DHT22;11429;50.842;4.386;2022-08-07T14:50:43;26.60;82.10
22526;DHT22;11429;50.842;4.386;2022-08-07T14:53:10;26.40;82.60
22526;DHT22;11429;50.842;4.386;2022-08-07T14:55:38;26.20;83.70
22526;DHT22;11429;50.842;4.386;2022-08-07T14:58:08;25.90;83.50
22526;DHT22;11429;50.842;4.386;2022-08-07T15:00:36;26.10;83.00
22526;DHT22;11429;50.842;4.386;2022-08-07T15:03:05;26.30;82.90
22526;DHT22;11429;50.842;4.386;2022-08-07T15:05:33;26.50;83.00
22526;DHT22;11429;50.842;4.386;2022-08-07T15:08:03;26.10;84.10
22526;DHT22;11429;50.842;4.386;2022-08-07T15:10:30;26.30;84.30
22526;DHT22;11429;50.842;4.386;2022-08-07T15:13:07;26.60;83.70
22526;DHT22;11429;50.842;4.386;2022-08-07T15:15:38;26.30;84.70
22526;DHT22;11429;50.842;4.386;2022-08-07T15:18:13;26.00;85.70
22526;DHT22;11429;50.842;4.386;2022-08-07T15:20:42;25.80;85.60
22526;DHT22;11429;50.842;4.386;2022-08-07T15:23:14;25.90;85.50
22526;DHT22;11429;50.842;4.386;2022-08-07T15:25:51;26.30;84.70
22526;DHT22;11429;50.842;4.386;2022-08-07T15:28:20;26.50;84.00
22526;DHT22;11429;50.842;4.386;2022-08-07T15:30:47;26.50;84.50
22526;DHT22;11429;50.842;4.386;2022-08-07T15:33:17;26.10;84.30
22526;DHT22;11429;50.842;4.386;2022-08-07T15:35:52;25.70;85.80
22526;DHT22;11429;50.842;4.386;2022-08-07T15:38:26;25.80;85.50
22526;DHT22;11429;50.842;4.386;2022-08-07T15:40:52;25.90;84.90
22526;DHT22;11429;50.842;4.386;2022-08-07T15:43:24;26.00;84.80
22526;DHT22;11429;50.842;4.386;2022-08-07T15:45:53;25.90;84.10
22526;DHT22;11429;50.842;4.386;2022-08-07T15:48:33;26.10;83.70
22526;DHT22;11429;50.842;4.386;2022-08-07T15:51:07;26.30;83.40
22526;DHT22;11429;50.842;4.386;2022-08-07T15:53:40;26.00;84.80
22526;DHT22;11429;50.842;4.386;2022-08-07T15:56:08;25.70;85.80
22526;DHT22;11429;50.842;4.386;2022-08-07T16:03:55;25.90;84.00
22526;DHT22;11429;50.842;4.386;2022-08-07T16:06:52;25.90;84.30
22526;DHT22;11429;50.842;4.386;2022-08-07T16:12:19;25.90;85.50
22526;DHT22;11429;50.842;4.386;2022-08-07T16:18:04;25.80;84.60
22526;DHT22;11429;50.842;4.386;2022-08-07T16:20:49;25.90;83.90
22526;DHT22;11429;50.842;4.386;2022-08-07T16:23:47;25.90;83.90
22526;DHT22;11429;50.842;4.386;2022-08-07T16:31:41;25.50;85.70
22526;DHT22;11429;50.842;4.386;2022-08-07T16:53:38;25.20;88.60
22526;DHT22;11429;50.842;4.386;2022-08-07T17:02:14;24.70;90.20
22526;DHT22;11429;50.842;4.386;2022-08-07T17:07:32;25.00;90.10
22526;DHT22;11429;50.842;4.386;2022-08-07T17:10:08;25.00;90.40
22526;DHT22;11429;50.842;4.386;2022-08-07T17:15:42;24.80;90.80
22526;DHT22;11429;50.842;4.386;2022-08-07T17:20:40;24.60;91.10
22526;DHT22;11429;50.842;4.386;2022-08-07T17:26:35;24.40;91.70
22526;DHT22;11429;50.842;4.386;2022-08-07T17:29:12;24.30;92.00
22526;DHT22;11429;50.842;4.386;2022-08-07T17:34:44;24.80;91.70
22526;DHT22;11429;50.842;4.386;2022-08-07T17:37:25;24.40;92.30
22526;DHT22;11429;50.842;4.386;2022-08-07T17:40:03;24.20;92.70
22526;DHT22;11429;50.842;4.386;2022-08-07T17:42:43;24.00;93.00
22526;DHT22;11429;50.842;4.386;2022-08-07T17:45:39;23.90;93.40
22526;DHT22;11429;50.842;4.386;2022-08-07T17:48:07;23.80;93.70
22526;DHT22;11429;50.842;4.386;2022-08-07T17:50:44;23.70;93.80
22526;DHT22;11429;50.842;4.386;2022-08-07T17:53:27;23.70;94.00
22526;DHT22;11429;50.842;4.386;2022-08-07T17:56:09;23.70;94.20
22526;DHT22;11429;50.842;4.386;2022-08-07T17:58:41;23.70;94.20
22526;DHT22;11429;50.842;4.386;2022-08-07T18:01:14;23.70;94.20
22526;DHT22;11429;50.842;4.386;2022-08-07T18:04:26;23.70;94.00
22526;DHT22;11429;50.842;4.386;2022-08-07T18:09:34;23.50;94.20
22526;DHT22;11429;50.842;4.386;2022-08-07T18:12:14;23.40;94.60
22526;DHT22;11429;50.842;4.386;2022-08-07T18:17:31;22.90;95.20
22526;DHT22;11429;50.842;4.386;2022-08-07T18:22:51;23.20;94.90
22526;DHT22;11429;50.842;4.386;2022-08-07T18:25:29;23.00;95.00
22526;DHT22;11429;50.842;4.386;2022-08-07T18:28:18;22.70;95.70
22526;DHT22;11429;50.842;4.386;2022-08-07T18:30:55;22.60;95.80
22526;DHT22;11429;50.842;4.386;2022-08-07T18:45:00;22.30;96.70
22526;DHT22;11429;50.842;4.386;2022-08-07T18:47:37;22.40;96.60
22526;DHT22;11429;50.842;4.386;2022-08-07T18:50:12;22.30;96.70
22526;DHT22;11429;50.842;4.386;2022-08-07T18:55:28;22.10;97.10
22526;DHT22;11429;50.842;4.386;2022-08-07T18:58:58;22.20;97.20
22526;DHT22;11429;50.842;4.386;2022-08-07T19:03:58;21.80;97.90
22526;DHT22;11429;50.842;4.386;2022-08-07T19:06:35;21.80;98.10
22526;DHT22;11429;50.842;4.386;2022-08-07T19:09:11;21.80;98.20
22526;DHT22;11429;50.842;4.386;2022-08-07T19:12:07;21.90;98.20
22526;DHT22;11429;50.842;4.386;2022-08-07T19:14:41;21.80;98.30
22526;DHT22;11429;50.842;4.386;2022-08-07T19:17:16;21.80;98.50
22526;DHT22;11429;50.842;4.386;2022-08-07T19:20:11;21.80;98.40
22526;DHT22;11429;50.842;4.386;2022-08-07T19:23:06;21.60;98.70